createdAt,value
2023-01-04T00:03:42.255Z,4.20
2023-01-04T00:09:02.068Z,3.07
2023-01-04T00:14:22.269Z,5.53
2023-01-04T00:19:42.576Z,3.47
2023-01-04T00:25:02.887Z,5.00
2023-01-04T00:30:22.983Z,3.40
2023-01-04T00:35:46.182Z,2.77
2023-01-04T00:41:06.720Z,3.23
2023-01-04T00:46:26.946Z,3.70
2023-01-04T00:51:47.104Z,2.93
2023-01-04T00:57:07.383Z,2.00
2023-01-04T01:02:28.246Z,2.57
2023-01-04T01:07:48.285Z,3.13
2023-01-04T01:13:08.320Z,2.60
2023-01-04T01:18:28.468Z,2.20
2023-01-04T01:23:48.462Z,3.40
2023-01-04T01:29:08.728Z,3.20
2023-01-04T01:34:29.107Z,2.90
2023-01-04T01:39:49.314Z,2.73
2023-01-04T01:45:09.395Z,2.90
2023-01-04T01:50:29.573Z,3.60
2023-01-04T01:55:49.608Z,2.20
2023-01-04T02:01:09.804Z,3.00
2023-01-04T02:06:29.953Z,1.97
2023-01-04T02:11:50.155Z,2.00
2023-01-04T02:17:10.177Z,1.67
2023-01-04T02:22:30.161Z,1.87
2023-01-04T02:27:50.343Z,3.20
2023-01-04T02:33:10.506Z,2.87
2023-01-04T02:38:30.667Z,3.67
2023-01-04T02:43:50.676Z,3.63
2023-01-04T02:49:10.681Z,3.07
2023-01-04T02:54:30.898Z,1.93
2023-01-04T02:59:51.021Z,2.40
2023-01-04T03:05:11.185Z,2.27
2023-01-04T03:10:33.252Z,2.07
2023-01-04T03:15:53.587Z,2.20
2023-01-04T03:21:13.668Z,3.97
2023-01-04T03:26:33.869Z,2.57
2023-01-04T03:31:53.868Z,2.60
2023-01-04T03:37:14.074Z,4.33
2023-01-04T03:42:34.255Z,3.50
2023-01-04T03:47:54.320Z,3.97
2023-01-04T03:53:14.481Z,1.60
2023-01-04T03:58:34.805Z,2.70
2023-01-04T04:03:54.897Z,2.77
2023-01-04T04:09:15.175Z,1.50
2023-01-04T04:14:35.297Z,1.77
2023-01-04T04:19:55.442Z,2.43
2023-01-04T04:25:15.589Z,4.33
2023-01-04T04:30:35.725Z,2.60
2023-01-04T04:35:56.013Z,2.73
2023-01-04T04:41:16.283Z,2.50
2023-01-04T04:46:36.479Z,2.43
2023-01-04T04:51:56.631Z,3.07
2023-01-04T04:57:16.765Z,2.30
2023-01-04T05:02:37.114Z,2.03
2023-01-04T05:07:57.162Z,3.93
2023-01-04T05:13:17.201Z,3.07
2023-01-04T05:18:37.411Z,2.40
2023-01-04T05:23:57.654Z,2.53
2023-01-04T05:29:17.769Z,2.10
2023-01-04T05:34:37.949Z,1.60
2023-01-04T05:39:58.135Z,3.10
2023-01-04T05:45:18.171Z,2.07
2023-01-04T05:50:38.246Z,2.00
2023-01-04T05:55:58.341Z,2.20
2023-01-04T06:01:18.746Z,1.77
2023-01-04T06:06:40.631Z,2.50
2023-01-04T06:12:00.833Z,1.27
2023-01-04T06:17:20.940Z,2.10
2023-01-04T06:22:40.987Z,1.87
2023-01-04T06:28:01.063Z,1.47
2023-01-04T06:33:21.189Z,1.63
2023-01-04T06:38:41.332Z,2.40
2023-01-04T06:44:01.450Z,1.43
2023-01-04T06:49:21.584Z,1.43
2023-01-04T06:54:41.711Z,1.33
2023-01-04T07:00:01.784Z,1.30
2023-01-04T07:05:21.934Z,2.10
2023-01-04T07:10:41.965Z,2.00
2023-01-04T07:16:02.194Z,1.70
2023-01-04T07:21:22.272Z,2.10
2023-01-04T07:26:42.396Z,1.70
2023-01-04T07:32:02.399Z,1.47
2023-01-04T07:37:22.572Z,1.10
2023-01-04T07:42:42.690Z,1.30
2023-01-04T07:48:02.884Z,1.30
2023-01-04T07:53:22.946Z,1.60
2023-01-04T07:58:43.141Z,2.00
2023-01-04T08:04:03.266Z,1.70
2023-01-04T08:09:23.323Z,1.17
2023-01-04T08:14:43.515Z,1.30
2023-01-04T08:20:03.523Z,2.90
2023-01-04T08:25:23.694Z,1.10
2023-01-04T08:30:44.015Z,1.20
2023-01-04T08:36:04.017Z,1.30
2023-01-04T08:41:56.132Z,1.40
2023-01-04T08:47:04.431Z,1.10
2023-01-04T08:52:24.543Z,3.00
2023-01-04T08:57:44.545Z,1.10
2023-01-04T09:03:04.849Z,1.17
2023-01-04T09:08:24.791Z,1.13
2023-01-04T09:13:45.053Z,2.90
2023-01-04T09:19:05.387Z,1.17
2023-01-04T09:24:25.619Z,1.30
2023-01-04T09:29:46.037Z,2.50
2023-01-04T09:35:06.254Z,1.20
2023-01-04T09:40:26.268Z,1.27
2023-01-04T09:45:46.469Z,1.10
2023-01-04T09:51:07.367Z,1.13
2023-01-04T09:56:27.653Z,1.00
2023-01-04T10:01:48.023Z,1.40
2023-01-04T10:07:08.452Z,1.07
2023-01-04T10:12:28.467Z,1.30
2023-01-04T10:23:28.435Z,1.20
2023-01-04T10:28:48.643Z,1.30
2023-01-04T10:34:12.686Z,0.83
2023-01-04T10:39:35.614Z,1.77
2023-01-04T10:44:55.732Z,0.90
2023-01-04T10:50:15.986Z,0.93
2023-01-04T10:55:36.148Z,1.13
2023-01-04T11:00:56.370Z,1.10
2023-01-04T11:06:16.349Z,1.27
2023-01-04T11:11:36.513Z,1.00
2023-01-04T11:16:56.623Z,1.30
2023-01-04T11:22:16.729Z,1.67
2023-01-04T11:27:36.915Z,0.87
2023-01-04T11:32:56.963Z,0.83
2023-01-04T11:38:17.132Z,1.27
2023-01-04T11:43:37.244Z,1.10
2023-01-04T11:48:57.445Z,1.17
2023-01-04T11:54:17.464Z,1.10
2023-01-04T11:59:37.588Z,1.00
2023-01-04T12:04:57.710Z,0.80
2023-01-04T12:10:17.943Z,0.90
2023-01-04T12:15:38.019Z,0.90
2023-01-04T12:20:58.055Z,1.30
2023-01-04T12:26:18.110Z,0.90
2023-01-04T12:31:38.164Z,1.27
2023-01-04T12:37:03.123Z,0.80
2023-01-04T12:42:25.396Z,1.33
2023-01-04T12:47:45.586Z,0.90
2023-01-04T12:59:24.070Z,0.80
2023-01-04T13:04:25.420Z,1.03
2023-01-04T13:09:48.348Z,1.30
2023-01-04T13:15:08.828Z,0.93
2023-01-04T13:20:28.955Z,1.00
2023-01-04T13:25:49.316Z,1.00
2023-01-04T13:31:09.392Z,1.47
2023-01-04T13:36:29.553Z,1.00
2023-01-04T13:41:49.688Z,1.30
2023-01-04T13:47:09.742Z,1.20
2023-01-04T13:52:56.389Z,1.90
2023-01-04T13:58:10.007Z,1.30
2023-01-04T14:03:30.586Z,1.53
2023-01-04T14:08:50.478Z,4.10
2023-01-04T14:14:10.617Z,2.70
2023-01-04T14:19:30.830Z,1.20
2023-01-04T14:30:30.642Z,1.20
2023-01-04T14:35:50.969Z,1.00
2023-01-04T14:41:11.037Z,0.90
2023-01-04T14:46:31.234Z,0.80
2023-01-04T14:51:51.190Z,1.20
2023-01-04T14:57:11.321Z,1.43
2023-01-04T15:02:31.498Z,1.10
2023-01-04T15:07:51.611Z,1.23
2023-01-04T15:13:11.708Z,1.20
2023-01-04T15:18:31.845Z,2.50
2023-01-04T15:23:51.954Z,1.03
2023-01-04T15:29:12.233Z,1.20
2023-01-04T15:34:32.246Z,1.33
2023-01-04T15:39:56.844Z,2.00
2023-01-04T15:45:21.591Z,2.20
2023-01-04T15:50:41.819Z,1.70
2023-01-04T15:56:01.835Z,1.60
2023-01-04T16:01:22.114Z,0.90
2023-01-04T16:06:42.223Z,1.73
2023-01-04T16:12:02.267Z,1.70
2023-01-04T16:17:22.540Z,2.43
2023-01-04T16:22:42.643Z,1.90
2023-01-04T16:28:02.952Z,1.50
2023-01-04T16:33:23.338Z,2.20
2023-01-04T16:38:43.563Z,3.97
2023-01-04T16:44:03.655Z,2.67
2023-01-04T16:49:23.851Z,1.60
2023-01-04T16:54:43.991Z,2.10
2023-01-04T17:00:04.181Z,3.13
2023-01-04T17:05:24.214Z,2.83
2023-01-04T17:10:44.473Z,1.30
2023-01-04T17:16:04.651Z,4.07
2023-01-04T17:21:33.853Z,5.07
2023-01-04T17:26:55.158Z,2.70
2023-01-04T17:32:15.491Z,1.87
2023-01-04T17:37:35.813Z,2.70
2023-01-04T17:42:55.898Z,2.33
2023-01-04T17:48:16.115Z,2.27
2023-01-04T17:53:36.403Z,3.40
2023-01-04T17:58:56.556Z,2.03
2023-01-04T18:04:16.763Z,1.27
2023-01-04T18:09:36.897Z,1.90
2023-01-04T18:14:57.103Z,1.30
2023-01-04T18:20:24.675Z,1.30
2023-01-04T18:25:45.497Z,4.30
2023-01-04T18:31:07.595Z,4.80
2023-01-04T18:36:32.574Z,2.77
2023-01-04T18:41:54.326Z,5.00
2023-01-04T18:47:14.346Z,7.60
2023-01-04T18:52:34.687Z,12.27
2023-01-04T18:57:54.734Z,7.67
2023-01-04T19:03:18.547Z,7.87
2023-01-04T19:08:38.853Z,4.27
2023-01-04T19:13:59.143Z,7.30
2023-01-04T19:19:19.352Z,6.47
2023-01-04T19:24:39.633Z,16.23
2023-01-04T19:29:59.701Z,18.87
2023-01-04T19:35:20.090Z,11.00
2023-01-04T19:40:40.798Z,15.27
2023-01-04T19:46:00.961Z,8.53
2023-01-04T19:51:21.055Z,14.17
2023-01-04T19:56:41.823Z,11.97
2023-01-04T20:02:02.022Z,12.57
2023-01-04T20:07:22.077Z,11.87
2023-01-04T20:12:42.218Z,13.57
2023-01-04T20:18:02.567Z,9.60
2023-01-04T20:23:22.351Z,11.43
2023-01-04T20:28:42.463Z,11.87
2023-01-04T20:34:02.522Z,18.77
2023-01-04T20:39:22.754Z,16.00
2023-01-04T20:44:42.935Z,11.37
2023-01-04T20:50:03.251Z,13.03
2023-01-04T20:55:23.375Z,11.37
2023-01-04T21:00:43.656Z,11.50
2023-01-04T21:06:03.717Z,9.43
2023-01-04T21:11:23.916Z,11.00
2023-01-04T21:16:44.037Z,11.20
2023-01-04T21:22:04.223Z,10.13
2023-01-04T21:27:24.368Z,11.60
2023-01-04T21:32:45.645Z,15.87
2023-01-04T21:38:05.846Z,11.53
2023-01-04T21:43:26.006Z,11.97
2023-01-04T21:48:46.135Z,9.83
2023-01-04T21:54:06.338Z,11.87
2023-01-04T21:59:26.472Z,8.13
2023-01-04T22:04:46.667Z,13.87
2023-01-04T22:10:06.722Z,12.87
2023-01-04T22:15:26.870Z,10.73
2023-01-04T22:20:46.908Z,10.63
2023-01-04T22:26:07.166Z,14.57
2023-01-04T22:31:27.428Z,10.87
2023-01-04T22:36:47.489Z,10.53
2023-01-04T22:42:07.694Z,9.83
2023-01-04T22:47:27.923Z,10.47
2023-01-04T22:52:51.122Z,8.10
2023-01-04T22:58:11.189Z,7.87
2023-01-04T23:03:31.272Z,9.50
2023-01-04T23:08:51.536Z,10.17
2023-01-04T23:14:11.698Z,15.30
2023-01-04T23:19:31.949Z,11.40
2023-01-04T23:24:52.009Z,13.93
2023-01-04T23:30:12.179Z,9.03
2023-01-04T23:35:32.330Z,9.23
2023-01-04T23:40:52.565Z,6.57
2023-01-04T23:46:12.659Z,8.17
2023-01-04T23:51:32.834Z,9.93
2023-01-04T23:56:52.880Z,8.23
